Time;durP1;ratioP1;P1;durP2;ratioP2;P2;SDS_P1;SDS_P2;PMS_P1;PMS_P2;Temp;Humidity;BMP_temperature;BMP_pressure;BME280_temperature;BME280_humidity;BME280_pressure;Samples;Min_cycle;Max_cycle;Signal;HPM_P1;HPM_P2
2021/06/07 00:02:00;;;;;;;24.57;22.30;;;16.20;99.90;;;;;;4925079;29;20236;-78
2021/06/07 00:04:28;;;;;;;25.67;23.27;;;16.10;99.90;;;;;;4914742;29;20229;-78
2021/06/07 00:06:56;;;;;;;24.87;22.53;;;16.10;99.90;;;;;;4911637;29;20250;-77
2021/06/07 00:09:24;;;;;;;22.97;20.93;;;16.10;99.90;;;;;;4909135;29;20219;-78
2021/06/07 00:11:52;;;;;;;26.37;23.77;;;16.10;99.90;;;;;;4928591;29;20215;-78
2021/06/07 00:14:21;;;;;;;24.67;22.20;;;16.10;99.90;;;;;;4913474;29;20255;-77
2021/06/07 00:16:48;;;;;;;26.87;24.33;;;16.10;99.90;;;;;;4932818;29;20203;-77
2021/06/07 00:19:17;;;;;;;27.10;24.50;;;16.10;99.90;;;;;;4930388;29;20259;-77
2021/06/07 00:21:44;;;;;;;29.27;26.33;;;16.10;99.90;;;;;;4927042;29;20220;-77
2021/06/07 00:24:12;;;;;;;25.23;23.03;;;16.10;99.90;;;;;;4932065;29;20227;-78
2021/06/07 00:26:40;;;;;;;27.50;24.87;;;16.10;99.90;;;;;;4926976;29;20207;-76
2021/06/07 00:29:07;;;;;;;28.97;26.27;;;16.10;99.90;;;;;;4927848;29;20204;-77
2021/06/07 00:31:36;;;;;;;28.00;25.30;;;16.00;99.90;;;;;;4912527;29;20224;-77
2021/06/07 00:34:02;;;;;;;27.80;25.07;;;16.00;99.90;;;;;;4930188;29;20196;-78
2021/06/07 00:36:29;;;;;;;25.73;23.37;;;16.00;99.90;;;;;;4912553;29;20218;-78
2021/06/07 00:38:55;;;;;;;28.23;25.53;;;16.00;99.90;;;;;;4913266;29;20204;-77
2021/06/07 00:41:23;;;;;;;28.10;25.23;;;16.00;99.90;;;;;;4933315;29;20238;-78
2021/06/07 00:43:54;;;;;;;27.60;24.90;;;16.00;99.90;;;;;;4913302;29;20244;-78
2021/06/07 00:46:20;;;;;;;28.77;25.97;;;16.00;99.90;;;;;;4927808;29;20196;-78
2021/06/07 00:48:46;;;;;;;26.60;24.00;;;16.00;99.90;;;;;;4931046;29;20214;-78
2021/06/07 00:51:12;;;;;;;28.10;25.33;;;16.00;99.90;;;;;;4928981;29;20267;-76
2021/06/07 00:53:39;;;;;;;27.90;25.27;;;16.00;99.90;;;;;;4914380;29;20201;-78
2021/06/07 00:56:08;;;;;;;27.17;24.37;;;16.00;99.90;;;;;;4912736;29;20295;-78
2021/06/07 00:58:37;;;;;;;26.03;23.43;;;16.00;99.90;;;;;;4925510;29;20215;-78
2021/06/07 01:01:06;;;;;;;27.87;24.87;;;16.00;99.90;;;;;;4932797;29;20645;-78
2021/06/07 01:03:33;;;;;;;25.27;22.90;;;16.00;99.90;;;;;;4911761;29;20196;-77
2021/06/07 01:06:00;;;;;;;27.97;25.00;;;16.00;99.90;;;;;;4913266;29;20263;-78
2021/06/07 01:08:26;;;;;;;25.53;23.20;;;16.00;99.90;;;;;;4915078;29;20219;-78
2021/06/07 01:10:53;;;;;;;26.97;24.30;;;16.00;99.90;;;;;;4927983;29;20223;-76
2021/06/07 01:13:20;;;;;;;25.60;23.20;;;16.00;99.90;;;;;;4909151;29;20207;-78
2021/06/07 01:15:50;;;;;;;30.20;27.23;;;15.90;99.90;;;;;;4929082;29;20196;-76
2021/06/07 01:18:18;;;;;;;25.23;23.00;;;15.90;99.90;;;;;;4928732;29;20228;-78
2021/06/07 01:20:45;;;;;;;29.40;26.40;;;16.00;99.90;;;;;;4929178;29;20232;-78
2021/06/07 01:23:13;;;;;;;29.93;26.77;;;15.90;99.90;;;;;;4928559;29;20661;-77
2021/06/07 01:25:41;;;;;;;28.90;26.13;;;15.90;99.90;;;;;;4915979;29;20223;-78
2021/06/07 01:28:11;;;;;;;24.57;22.33;;;15.90;99.90;;;;;;4913789;29;20400;-77
2021/06/07 01:30:39;;;;;;;25.77;23.33;;;15.90;99.90;;;;;;4908880;29;20216;-78
2021/06/07 01:33:07;;;;;;;30.57;27.33;;;15.90;99.90;;;;;;4926899;29;20215;-77
2021/06/07 01:35:34;;;;;;;26.37;23.80;;;15.90;99.90;;;;;;4928774;29;20224;-78
2021/06/07 01:38:01;;;;;;;30.17;27.07;;;15.90;99.90;;;;;;4928535;29;20705;-78
2021/06/07 01:40:32;;;;;;;27.17;24.63;;;15.90;99.90;;;;;;4928999;29;20245;-79
2021/06/07 01:42:59;;;;;;;27.50;24.73;;;15.90;99.90;;;;;;4908994;29;20278;-77
2021/06/07 01:45:27;;;;;;;28.73;25.73;;;15.90;99.90;;;;;;4930175;29;20733;-77
2021/06/07 01:47:56;;;;;;;30.07;27.13;;;15.90;99.90;;;;;;4910871;29;20213;-76
2021/06/07 01:50:23;;;;;;;30.77;27.70;;;15.90;99.90;;;;;;4909125;29;20227;-78
2021/06/07 01:52:50;;;;;;;30.90;27.90;;;15.90;99.90;;;;;;4911829;29;20208;-78
2021/06/07 01:55:18;;;;;;;31.27;27.47;;;15.80;99.90;;;;;;4910901;29;20207;-80
2021/06/07 01:57:47;;;;;;;28.57;25.77;;;15.90;99.90;;;;;;4912667;29;20716;-77
2021/06/07 02:00:17;;;;;;;30.80;27.43;;;15.80;99.90;;;;;;4912095;29;20234;-78
2021/06/07 02:02:44;;;;;;;29.53;26.47;;;15.80;99.90;;;;;;4900479;29;20199;-79
2021/06/07 02:05:12;;;;;;;27.27;24.57;;;15.90;99.90;;;;;;4907073;29;20228;-78
2021/06/07 02:07:43;;;;;;;35.97;32.60;;;15.90;99.90;;;;;;4913772;29;20237;-78
2021/06/07 02:10:11;;;;;;;29.70;26.93;;;15.80;99.90;;;;;;4906667;29;20231;-78
2021/06/07 02:12:37;;;;;;;30.60;27.27;;;15.90;99.90;;;;;;4930434;29;20198;-77
2021/06/07 02:15:07;;;;;;;35.80;32.03;;;15.80;99.90;;;;;;4928046;29;20610;-79
2021/06/07 02:17:34;;;;;;;32.87;29.33;;;15.80;99.90;;;;;;4913377;29;20206;-78
2021/06/07 02:20:00;;;;;;;32.23;28.67;;;15.80;99.90;;;;;;4910864;29;20203;-78
2021/06/07 02:22:26;;;;;;;31.70;28.57;;;15.80;99.90;;;;;;4924792;29;20200;-78
2021/06/07 02:24:53;;;;;;;33.60;30.00;;;15.80;99.90;;;;;;4927353;29;20690;-78
2021/06/07 02:27:19;;;;;;;28.77;25.77;;;15.80;99.90;;;;;;4911827;29;20208;-78
2021/06/07 02:29:45;;;;;;;30.90;27.80;;;15.80;99.90;;;;;;4910401;29;20666;-79
2021/06/07 02:32:13;;;;;;;29.27;26.33;;;15.80;99.90;;;;;;4927178;29;20204;-78
2021/06/07 02:34:39;;;;;;;32.27;27.47;;;15.80;99.90;;;;;;4908828;29;20211;-77
2021/06/07 02:37:06;;;;;;;31.17;28.07;;;15.80;99.90;;;;;;4929399;29;20226;-79
2021/06/07 02:39:32;;;;;;;29.83;26.83;;;15.80;99.90;;;;;;4925963;29;20192;-78
2021/06/07 02:41:59;;;;;;;28.50;25.67;;;15.80;99.90;;;;;;4908897;29;20289;-82
2021/06/07 02:44:25;;;;;;;31.20;27.90;;;15.80;99.90;;;;;;4909298;29;20219;-78
2021/06/07 02:46:51;;;;;;;27.67;25.07;;;15.80;99.90;;;;;;4902177;29;20267;-82
2021/06/07 02:49:19;;;;;;;30.10;26.93;;;15.80;99.90;;;;;;4928279;29;20641;-79
2021/06/07 02:51:45;;;;;;;31.07;27.87;;;15.70;99.90;;;;;;4909521;29;20240;-81
2021/06/07 02:54:12;;;;;;;29.37;26.30;;;15.70;99.90;;;;;;4913194;29;20211;-81
2021/06/07 02:56:38;;;;;;;29.83;26.73;;;15.80;99.90;;;;;;4919351;29;20203;-82
2021/06/07 02:59:04;;;;;;;30.83;27.67;;;15.80;99.90;;;;;;4906751;29;20210;-80
2021/06/07 03:01:31;;;;;;;33.47;29.90;;;15.70;99.90;;;;;;4907545;29;20235;-79
2021/06/07 03:03:57;;;;;;;32.33;29.17;;;15.70;99.90;;;;;;4907472;29;20200;-79
2021/06/07 03:06:25;;;;;;;29.47;26.57;;;15.70;99.90;;;;;;4926166;29;20223;-79
2021/06/07 03:08:51;;;;;;;33.57;30.00;;;15.70;99.90;;;;;;4927163;29;20207;-79
2021/06/07 03:11:17;;;;;;;32.47;29.17;;;15.60;99.90;;;;;;4910235;29;20227;-76
2021/06/07 03:13:44;;;;;;;37.03;32.17;;;15.70;99.90;;;;;;4934746;29;20204;-80
2021/06/07 03:16:10;;;;;;;32.67;29.30;;;15.70;99.90;;;;;;4933847;29;20192;-79
2021/06/07 03:18:37;;;;;;;31.70;28.70;;;15.70;99.90;;;;;;4934245;29;20208;-79
2021/06/07 03:21:05;;;;;;;35.40;30.47;;;15.70;99.90;;;;;;4927948;29;20243;-77
2021/06/07 03:23:35;;;;;;;29.87;26.97;;;15.70;99.90;;;;;;4934408;29;20648;-77
2021/06/07 03:26:02;;;;;;;29.87;26.97;;;15.70;99.90;;;;;;4911891;29;20228;-79
2021/06/07 03:28:28;;;;;;;31.10;28.10;;;15.70;99.90;;;;;;4915301;29;20211;-78
2021/06/07 03:30:56;;;;;;;28.97;26.07;;;15.70;99.90;;;;;;4928832;29;20223;-78
2021/06/07 03:33:24;;;;;;;31.90;28.47;;;15.70;99.90;;;;;;4910007;29;20212;-79
2021/06/07 03:35:52;;;;;;;32.27;28.97;;;15.70;99.90;;;;;;4913195;29;20202;-80
2021/06/07 03:38:19;;;;;;;30.07;26.97;;;15.70;99.90;;;;;;4913340;29;20200;-79
2021/06/07 03:40:51;;;;;;;29.67;26.83;;;15.80;99.90;;;;;;4930332;29;20299;-78
2021/06/07 03:43:18;;;;;;;34.30;30.60;;;15.80;99.90;;;;;;4913760;29;20208;-79
2021/06/07 03:45:44;;;;;;;33.87;29.30;;;15.80;99.90;;;;;;4913408;29;20223;-78
2021/06/07 03:48:11;;;;;;;31.27;27.97;;;15.70;99.90;;;;;;4928134;29;20397;-78
2021/06/07 03:50:39;;;;;;;30.17;27.10;;;15.70;99.90;;;;;;4932799;29;20219;-79
2021/06/07 03:53:07;;;;;;;33.93;30.30;;;15.70;99.90;;;;;;4911735;29;20266;-79
2021/06/07 03:55:34;;;;;;;30.23;27.40;;;15.70;99.90;;;;;;4913580;29;20201;-81
2021/06/07 03:58:02;;;;;;;34.77;31.03;;;15.70;99.90;;;;;;4916725;29;20283;-78
2021/06/07 04:00:31;;;;;;;32.27;29.00;;;15.70;99.90;;;;;;4940202;29;20228;-78
2021/06/07 04:02:58;;;;;;;40.50;35.43;;;15.70;99.90;;;;;;4921671;29;20731;-77
2021/06/07 04:05:25;;;;;;;32.93;29.50;;;15.70;99.90;;;;;;4938426;29;20211;-78
2021/06/07 04:07:53;;;;;;;33.40;29.77;;;15.60;99.90;;;;;;4937011;29;20199;-78
2021/06/07 04:10:22;;;;;;;35.50;31.73;;;15.70;99.90;;;;;;4936857;29;20222;-78
2021/06/07 04:12:49;;;;;;;35.70;31.90;;;15.70;99.90;;;;;;4918876;29;20211;-77
2021/06/07 04:15:20;;;;;;;34.63;30.93;;;15.70;99.90;;;;;;4922703;29;20208;-77
2021/06/07 04:17:47;;;;;;;37.10;30.70;;;15.70;99.90;;;;;;4920456;29;20204;-78
2021/06/07 04:20:16;;;;;;;35.13;31.27;;;15.70;99.90;;;;;;4921566;29;20512;-77
2021/06/07 04:22:43;;;;;;;35.20;31.70;;;15.70;99.90;;;;;;4921062;29;20208;-77
2021/06/07 04:25:12;;;;;;;32.47;29.17;;;15.70;99.90;;;;;;4929634;29;20250;-77
2021/06/07 04:27:40;;;;;;;34.80;31.20;;;15.70;99.90;;;;;;4925375;29;20205;-77
2021/06/07 04:30:09;;;;;;;38.53;33.43;;;15.70;99.90;;;;;;4924678;29;20772;-77
2021/06/07 04:32:38;;;;;;;31.73;28.67;;;15.70;99.90;;;;;;4910500;29;20208;-78
2021/06/07 04:35:06;;;;;;;30.80;27.77;;;15.70;99.90;;;;;;4933500;29;20699;-77
2021/06/07 04:37:39;;;;;;;30.67;27.63;;;15.70;99.90;;;;;;4910782;29;20221;-78
2021/06/07 04:42:51;;;;;;;34.23;30.73;;;15.70;99.90;;;;;;4888581;29;20683;-77
2021/06/07 04:45:18;;;;;;;33.13;29.40;;;15.70;99.90;;;;;;4893977;29;20276;-77
2021/06/07 04:47:46;;;;;;;35.03;31.13;;;15.80;99.90;;;;;;4886908;29;20204;-77
2021/06/07 04:50:14;;;;;;;36.97;33.00;;;15.80;99.90;;;;;;4875374;29;20206;-77
2021/06/07 04:55:23;;;;;;;33.23;29.93;;;15.70;99.90;;;;;;4874156;29;20585;-77
2021/06/07 04:57:49;;;;;;;33.57;30.20;;;15.80;99.90;;;;;;4857967;29;20236;-77
2021/06/07 05:00:17;;;;;;;30.40;27.37;;;15.80;99.90;;;;;;4854784;29;20242;-77
2021/06/07 05:02:43;;;;;;;32.50;29.30;;;15.80;99.90;;;;;;4857066;29;20205;-78
2021/06/07 05:05:12;;;;;;;31.53;28.43;;;15.80;99.90;;;;;;4873517;29;20216;-77
2021/06/07 05:07:39;;;;;;;31.40;28.30;;;15.90;99.90;;;;;;4857103;29;20197;-78
2021/06/07 05:10:06;;;;;;;30.80;27.80;;;15.80;99.90;;;;;;4873488;29;20209;-76
2021/06/07 05:12:32;;;;;;;29.63;26.90;;;15.80;99.90;;;;;;4855718;29;20236;-77
2021/06/07 05:14:59;;;;;;;28.90;26.10;;;15.90;99.90;;;;;;4857047;29;20202;-77
2021/06/07 05:17:26;;;;;;;31.77;28.60;;;15.80;99.90;;;;;;4871225;29;20229;-77
2021/06/07 05:19:52;;;;;;;29.87;27.17;;;15.90;99.90;;;;;;4856447;29;20214;-77
2021/06/07 05:22:20;;;;;;;31.00;27.90;;;15.80;99.90;;;;;;4853342;29;20221;-77
2021/06/07 05:24:46;;;;;;;31.60;28.50;;;15.90;99.90;;;;;;4872351;29;20231;-77
2021/06/07 05:27:13;;;;;;;31.80;28.70;;;15.90;99.90;;;;;;4855159;29;20209;-77
2021/06/07 05:29:39;;;;;;;30.53;27.37;;;15.90;99.90;;;;;;4876433;29;20202;-76
2021/06/07 05:32:06;;;;;;;29.80;26.90;;;15.90;99.90;;;;;;4856624;29;20285;-78
2021/06/07 05:34:33;;;;;;;33.83;30.30;;;15.90;99.90;;;;;;4872057;29;20206;-77
2021/06/07 05:36:59;;;;;;;35.30;31.53;;;15.90;99.90;;;;;;4850622;29;20202;-77
2021/06/07 05:39:28;;;;;;;32.10;28.77;;;15.90;99.90;;;;;;4867961;29;20206;-79
2021/06/07 05:41:54;;;;;;;34.23;30.67;;;15.90;99.90;;;;;;4865427;29;20228;-77
2021/06/07 05:44:20;;;;;;;35.27;31.90;;;15.90;99.90;;;;;;4864643;29;20202;-79
2021/06/07 05:46:47;;;;;;;32.57;29.67;;;15.90;99.90;;;;;;4877643;29;20198;-77
2021/06/07 05:49:14;;;;;;;32.30;29.47;;;15.90;99.90;;;;;;4869667;29;20202;-77
2021/06/07 05:51:40;;;;;;;32.80;29.77;;;16.00;99.90;;;;;;4859100;29;20222;-78
2021/06/07 05:54:07;;;;;;;32.03;28.97;;;16.00;99.90;;;;;;4868423;29;20213;-78
2021/06/07 05:56:36;;;;;;;29.93;27.20;;;16.00;99.90;;;;;;4875694;29;20205;-77
2021/06/07 05:59:04;;;;;;;30.47;27.57;;;16.00;99.90;;;;;;4854713;29;20218;-78
2021/06/07 06:01:31;;;;;;;29.13;26.53;;;16.00;99.90;;;;;;4871148;29;20217;-77
2021/06/07 06:03:58;;;;;;;30.33;27.43;;;16.10;99.90;;;;;;4856470;29;20780;-76
2021/06/07 06:06:25;;;;;;;33.00;29.37;;;16.20;99.90;;;;;;4870724;29;20221;-77
2021/06/07 06:08:51;;;;;;;31.23;28.03;;;16.10;99.90;;;;;;4874146;29;20206;-77
2021/06/07 06:11:18;;;;;;;30.10;27.10;;;16.10;99.90;;;;;;4853390;29;20223;-78
2021/06/07 06:13:48;;;;;;;31.53;27.37;;;16.10;99.90;;;;;;4875767;29;20212;-79
2021/06/07 06:16:15;;;;;;;29.03;26.23;;;16.10;99.90;;;;;;4852242;29;20213;-76
2021/06/07 06:18:41;;;;;;;29.50;26.60;;;16.10;99.90;;;;;;4864784;29;20205;-78
2021/06/07 06:21:08;;;;;;;31.60;28.50;;;16.10;99.90;;;;;;4870445;29;20213;-77
2021/06/07 06:23:34;;;;;;;29.37;26.57;;;16.10;99.90;;;;;;4871011;29;20692;-77
2021/06/07 06:26:03;;;;;;;30.10;27.00;;;16.10;99.90;;;;;;4872291;29;20226;-77
2021/06/07 06:28:30;;;;;;;27.40;24.90;;;16.10;99.90;;;;;;4876161;29;20205;-77
2021/06/07 06:30:58;;;;;;;29.10;26.30;;;16.10;99.90;;;;;;4868143;29;20646;-77
2021/06/07 06:33:24;;;;;;;30.53;27.70;;;16.10;99.90;;;;;;4853096;29;20210;-77
2021/06/07 06:35:50;;;;;;;30.33;27.40;;;16.10;99.90;;;;;;4873996;29;20202;-77
2021/06/07 06:38:17;;;;;;;30.23;27.10;;;16.10;99.90;;;;;;4870643;29;20194;-77
2021/06/07 06:40:43;;;;;;;28.57;26.07;;;16.10;99.90;;;;;;4875817;29;20219;-77
2021/06/07 06:43:10;;;;;;;29.03;26.23;;;16.20;99.90;;;;;;4854100;29;20202;-77
2021/06/07 06:45:37;;;;;;;27.63;25.17;;;16.20;99.90;;;;;;4852539;29;20233;-77
2021/06/07 06:48:06;;;;;;;27.27;24.57;;;16.20;99.90;;;;;;4871259;29;20205;-78
2021/06/07 06:50:34;;;;;;;27.30;24.77;;;16.20;99.90;;;;;;4868290;29;20672;-77
2021/06/07 06:53:02;;;;;;;29.30;26.67;;;16.20;99.90;;;;;;4854174;29;20209;-78
2021/06/07 06:55:28;;;;;;;27.97;25.23;;;16.20;99.90;;;;;;4853194;29;20286;-77
2021/06/07 06:57:55;;;;;;;26.60;24.20;;;16.30;99.90;;;;;;4855182;29;20206;-77
2021/06/07 07:00:22;;;;;;;27.70;25.07;;;16.30;99.90;;;;;;4870624;29;20205;-78
2021/06/07 07:02:49;;;;;;;27.30;24.70;;;16.40;99.90;;;;;;4869985;29;20265;-78
2021/06/07 07:05:16;;;;;;;25.80;23.40;;;16.30;99.90;;;;;;4853309;29;20223;-77
2021/06/07 07:07:43;;;;;;;26.67;24.23;;;16.40;99.90;;;;;;4860803;29;20201;-78
2021/06/07 07:10:10;;;;;;;26.13;23.73;;;16.40;99.90;;;;;;4853110;29;20636;-78
2021/06/07 07:12:37;;;;;;;25.03;22.80;;;16.40;99.90;;;;;;4868277;29;20236;-77
2021/06/07 07:15:06;;;;;;;25.70;23.53;;;16.40;99.90;;;;;;4869556;29;20206;-77
2021/06/07 07:17:32;;;;;;;25.60;23.40;;;16.40;99.90;;;;;;4851028;29;20216;-79
2021/06/07 07:19:59;;;;;;;27.23;24.73;;;16.40;99.90;;;;;;4853531;29;20220;-78
2021/06/07 07:22:26;;;;;;;25.37;23.00;;;16.40;99.90;;;;;;4865781;29;20229;-78
2021/06/07 07:24:53;;;;;;;24.90;22.77;;;16.40;99.90;;;;;;4872681;29;20216;-78
2021/06/07 07:27:20;;;;;;;26.97;24.47;;;16.40;99.90;;;;;;4869559;29;20206;-78
2021/06/07 07:29:46;;;;;;;27.30;24.57;;;16.40;99.90;;;;;;4854945;29;20230;-78
2021/06/07 07:32:13;;;;;;;26.47;23.87;;;16.30;99.90;;;;;;4869730;29;20245;-78
2021/06/07 07:34:40;;;;;;;26.80;24.50;;;16.30;99.90;;;;;;4855451;29;20212;-77
2021/06/07 07:37:08;;;;;;;26.87;24.57;;;16.40;99.90;;;;;;4874524;29;20235;-78
2021/06/07 07:39:36;;;;;;;27.43;25.20;;;16.40;99.90;;;;;;4861812;29;20202;-79
2021/06/07 07:42:04;;;;;;;24.73;22.53;;;16.40;99.90;;;;;;4869492;29;171482;-78
2021/06/07 07:44:30;;;;;;;25.63;23.43;;;16.40;99.90;;;;;;4861689;29;20652;-79
2021/06/07 07:46:57;;;;;;;24.17;22.07;;;16.40;99.90;;;;;;4862228;29;20210;-78
2021/06/07 07:49:23;;;;;;;25.33;23.23;;;16.40;99.90;;;;;;4876795;29;20212;-78
2021/06/07 07:51:51;;;;;;;25.73;23.60;;;16.40;99.90;;;;;;4860536;29;20221;-78
2021/06/07 07:54:18;;;;;;;27.47;25.20;;;16.40;99.90;;;;;;4878979;29;20262;-78
2021/06/07 07:56:46;;;;;;;24.63;22.47;;;16.40;99.90;;;;;;4860220;29;20209;-78
2021/06/07 07:59:13;;;;;;;25.03;22.87;;;16.40;99.90;;;;;;4878894;29;20250;-77
2021/06/07 08:01:41;;;;;;;23.00;21.07;;;16.40;99.90;;;;;;4849776;29;20228;-78
2021/06/07 08:04:08;;;;;;;25.03;22.83;;;16.50;99.90;;;;;;4864772;29;20230;-78
2021/06/07 08:06:34;;;;;;;24.70;22.60;;;16.50;99.90;;;;;;4877476;29;20202;-78
2021/06/07 08:09:01;;;;;;;24.87;22.67;;;16.50;99.90;;;;;;4882434;29;20325;-77
2021/06/07 08:11:28;;;;;;;23.60;21.60;;;16.50;99.90;;;;;;4856858;29;20294;-78
2021/06/07 08:13:55;;;;;;;25.27;23.07;;;16.50;99.90;;;;;;4863876;29;20211;-78
2021/06/07 08:16:22;;;;;;;24.27;22.20;;;16.50;99.90;;;;;;4863001;29;20198;-77
2021/06/07 08:18:48;;;;;;;23.17;21.17;;;16.60;99.90;;;;;;4877330;29;20273;-78
2021/06/07 08:21:16;;;;;;;23.97;21.80;;;16.60;99.90;;;;;;4866380;29;20236;-79
2021/06/07 08:23:42;;;;;;;22.63;20.97;;;16.60;99.90;;;;;;4868869;29;20232;-79
2021/06/07 08:26:08;;;;;;;23.27;21.40;;;16.70;99.90;;;;;;4886216;29;20589;-78
2021/06/07 08:28:35;;;;;;;23.87;21.87;;;16.80;99.90;;;;;;4860326;29;20206;-78
2021/06/07 08:31:03;;;;;;;23.40;21.50;;;16.90;99.90;;;;;;4881303;29;20225;-78
2021/06/07 08:33:31;;;;;;;21.63;20.03;;;16.90;99.90;;;;;;4854798;29;20213;-79
2021/06/07 08:35:58;;;;;;;24.33;22.40;;;17.00;99.90;;;;;;4860648;29;20258;-78
2021/06/07 08:38:25;;;;;;;23.53;21.77;;;17.10;99.90;;;;;;4858499;29;20210;-78
2021/06/07 08:40:54;;;;;;;21.83;20.23;;;17.10;99.90;;;;;;4864537;29;20723;-78
2021/06/07 08:43:22;;;;;;;22.10;20.30;;;17.20;99.90;;;;;;4874966;29;20205;-78
2021/06/07 08:45:49;;;;;;;22.03;20.43;;;17.20;99.90;;;;;;4873230;29;20219;-78
2021/06/07 08:48:17;;;;;;;21.70;20.00;;;17.20;99.90;;;;;;4859147;29;20212;-79
2021/06/07 08:50:45;;;;;;;21.27;19.67;;;17.20;99.90;;;;;;4851652;29;20329;-78
2021/06/07 08:53:13;;;;;;;21.00;19.43;;;17.30;99.90;;;;;;4873851;29;20206;-78
2021/06/07 08:55:39;;;;;;;19.67;18.27;;;17.30;99.90;;;;;;4861835;29;20202;-78
2021/06/07 08:58:06;;;;;;;20.43;19.03;;;17.20;99.90;;;;;;4880106;29;20264;-78
2021/06/07 09:00:37;;;;;;;19.87;18.47;;;17.20;99.90;;;;;;4879625;29;20684;-78
2021/06/07 09:03:05;;;;;;;19.90;18.40;;;17.20;99.90;;;;;;4860720;29;20226;-78
2021/06/07 09:05:35;;;;;;;20.07;18.57;;;17.30;99.90;;;;;;4878296;29;20216;-78
2021/06/07 09:08:04;;;;;;;19.37;17.97;;;17.30;99.90;;;;;;4861330;29;20584;-78
2021/06/07 09:10:33;;;;;;;22.47;20.87;;;17.40;99.90;;;;;;4857810;29;20267;-77
2021/06/07 09:13:03;;;;;;;19.73;18.33;;;17.40;99.90;;;;;;4859225;29;20227;-77
2021/06/07 09:15:36;;;;;;;19.53;18.13;;;17.40;99.90;;;;;;4858457;29;20210;-78
2021/06/07 09:18:05;;;;;;;17.67;16.57;;;17.50;99.90;;;;;;4875670;29;20206;-78
2021/06/07 09:20:33;;;;;;;18.13;16.93;;;17.60;99.90;;;;;;4855708;29;20213;-78
2021/06/07 09:23:02;;;;;;;18.63;17.33;;;17.70;99.90;;;;;;4875226;29;20210;-79
2021/06/07 09:25:31;;;;;;;18.43;17.30;;;17.70;99.90;;;;;;4873376;29;20217;-78
2021/06/07 09:28:07;;;;;;;18.10;16.90;;;17.70;99.90;;;;;;4858434;29;20213;-78
2021/06/07 09:30:39;;;;;;;17.77;16.57;;;17.70;99.90;;;;;;4873479;29;20374;-78
2021/06/07 09:33:30;;;;;;;18.50;17.20;;;17.60;99.90;;;;;;4857884;29;20204;-78
2021/06/07 09:36:22;;;;;;;18.30;17.10;;;17.50;99.90;;;;;;4854794;29;20208;-78
2021/06/07 09:38:56;;;;;;;19.20;17.73;;;17.50;99.90;;;;;;4846013;29;20207;-79
2021/06/07 09:41:23;;;;;;;19.10;17.67;;;17.40;99.90;;;;;;4855021;29;20254;-78
2021/06/07 09:43:52;;;;;;;19.07;17.67;;;17.50;99.90;;;;;;4857661;29;20275;-78
2021/06/07 09:46:21;;;;;;;18.70;17.33;;;17.50;99.90;;;;;;4853871;29;20239;-78
2021/06/07 09:48:48;;;;;;;18.67;17.37;;;17.50;99.90;;;;;;4856339;29;20214;-77
2021/06/07 09:51:20;;;;;;;18.27;16.97;;;17.50;99.90;;;;;;4854240;29;20238;-78
2021/06/07 09:53:48;;;;;;;19.10;17.73;;;17.60;99.90;;;;;;4864998;29;20214;-78
2021/06/07 09:56:15;;;;;;;18.60;17.30;;;17.70;99.90;;;;;;4857051;29;20214;-78
2021/06/07 09:58:43;;;;;;;19.37;17.97;;;17.70;99.90;;;;;;4855629;29;20274;-79
2021/06/07 10:01:13;;;;;;;17.77;16.47;;;17.70;99.90;;;;;;4873780;29;20231;-79
2021/06/07 10:03:42;;;;;;;18.00;16.63;;;17.70;99.90;;;;;;4854124;29;20214;-77
2021/06/07 10:06:26;;;;;;;18.03;16.83;;;17.70;99.90;;;;;;4857105;29;20581;-77
2021/06/07 10:08:57;;;;;;;17.97;16.67;;;17.60;99.90;;;;;;4850778;29;20595;-78
2021/06/07 10:11:26;;;;;;;18.80;17.40;;;17.70;99.90;;;;;;4872894;29;20263;-77
2021/06/07 10:14:06;;;;;;;18.07;16.77;;;17.70;99.90;;;;;;4858034;29;20237;-77
2021/06/07 10:16:32;;;;;;;17.80;16.37;;;17.70;99.90;;;;;;4871694;29;20265;-77
2021/06/07 10:19:03;;;;;;;17.97;16.77;;;17.80;99.90;;;;;;4870526;29;20277;-77
2021/06/07 10:21:31;;;;;;;17.63;16.43;;;17.90;99.90;;;;;;4875278;29;20266;-77
2021/06/07 10:23:58;;;;;;;18.50;17.17;;;18.10;99.90;;;;;;4869734;29;20210;-78
2021/06/07 10:26:24;;;;;;;16.53;15.43;;;18.30;99.90;;;;;;4876671;29;20228;-77
2021/06/07 10:28:53;;;;;;;16.77;15.57;;;18.50;99.90;;;;;;4853924;29;20215;-77
2021/06/07 10:31:21;;;;;;;17.73;16.40;;;18.60;99.90;;;;;;4876381;29;20696;-77
2021/06/07 10:33:57;;;;;;;16.63;15.47;;;18.60;99.90;;;;;;4851796;29;20682;-78
2021/06/07 10:36:35;;;;;;;16.77;15.50;;;18.70;99.90;;;;;;4851212;29;20302;-78
2021/06/07 10:39:22;;;;;;;17.23;16.03;;;18.60;99.90;;;;;;4867496;29;20202;-79
2021/06/07 10:42:09;;;;;;;16.90;15.70;;;18.60;99.90;;;;;;4866018;29;20311;-78
2021/06/07 10:44:37;;;;;;;16.20;14.93;;;18.60;99.90;;;;;;4868871;29;20253;-78
2021/06/07 10:47:05;;;;;;;16.07;14.97;;;18.60;99.90;;;;;;4870650;29;20228;-79
2021/06/07 10:49:37;;;;;;;16.70;15.40;;;18.60;99.90;;;;;;4870235;29;20323;-78
2021/06/07 10:52:11;;;;;;;16.53;15.23;;;18.50;99.90;;;;;;4869901;29;20236;-77
2021/06/07 10:54:39;;;;;;;16.87;15.60;;;18.50;99.90;;;;;;4868267;29;20204;-79
2021/06/07 10:57:28;;;;;;;17.47;16.03;;;18.40;99.90;;;;;;4855565;29;20223;-78
2021/06/07 10:59:56;;;;;;;17.30;16.00;;;18.50;99.90;;;;;;4851190;29;20205;-78
2021/06/07 11:02:24;;;;;;;16.00;14.80;;;18.50;99.90;;;;;;4854782;29;20231;-77
2021/06/07 11:05:01;;;;;;;16.70;15.40;;;18.50;99.90;;;;;;4860731;29;20209;-77
2021/06/07 11:07:29;;;;;;;17.40;16.10;;;18.50;99.90;;;;;;4850591;29;20290;-77
2021/06/07 11:10:20;;;;;;;17.27;15.97;;;18.50;99.90;;;;;;4867106;29;20208;-77
2021/06/07 11:12:47;;;;;;;17.70;16.40;;;18.40;99.90;;;;;;4862401;29;20618;-78
2021/06/07 11:15:15;;;;;;;18.73;17.37;;;18.40;99.90;;;;;;4866776;29;20205;-77
2021/06/07 11:17:42;;;;;;;20.40;18.70;;;18.20;99.90;;;;;;4877355;29;20209;-78
2021/06/07 11:20:10;;;;;;;19.57;17.97;;;18.30;99.90;;;;;;4871768;29;20216;-77
2021/06/07 11:23:09;;;;;;;18.20;16.80;;;18.20;99.90;;;;;;4872813;29;20753;-77
2021/06/07 11:25:51;;;;;;;17.73;16.40;;;18.40;99.90;;;;;;4845434;29;20229;-79
2021/06/07 11:28:36;;;;;;;18.33;16.90;;;18.60;99.90;;;;;;4850903;29;20207;-78
2021/06/07 11:31:06;;;;;;;17.07;15.77;;;18.70;99.90;;;;;;4858755;29;20248;-78
2021/06/07 11:33:51;;;;;;;17.83;16.43;;;18.80;99.90;;;;;;4875216;29;20221;-77
2021/06/07 11:36:43;;;;;;;18.50;17.10;;;18.90;99.90;;;;;;4874063;29;20205;-79
2021/06/07 11:39:13;;;;;;;18.57;17.17;;;18.90;99.90;;;;;;4875728;29;20206;-78
2021/06/07 11:41:48;;;;;;;19.50;17.90;;;18.80;99.90;;;;;;4858797;29;20617;-78
2021/06/07 11:44:16;;;;;;;18.37;16.97;;;18.60;99.90;;;;;;4858816;29;20219;-79
2021/06/07 11:46:55;;;;;;;18.60;17.10;;;18.60;99.90;;;;;;4865680;29;20212;-78
2021/06/07 11:49:22;;;;;;;19.60;18.10;;;18.70;99.90;;;;;;4874242;29;20201;-77
2021/06/07 11:52:04;;;;;;;20.07;18.57;;;18.70;99.90;;;;;;4854305;29;20595;-78
2021/06/07 11:54:52;;;;;;;19.60;18.13;;;18.70;99.90;;;;;;4869765;29;20197;-78
2021/06/07 11:57:22;;;;;;;21.00;19.33;;;18.70;99.90;;;;;;4852589;29;20586;-78
2021/06/07 11:59:54;;;;;;;20.43;18.83;;;18.70;99.90;;;;;;4871732;29;20202;-78
2021/06/07 12:02:21;;;;;;;19.13;17.73;;;18.70;99.90;;;;;;4856236;29;20225;-78
2021/06/07 12:04:48;;;;;;;20.03;18.53;;;18.80;99.90;;;;;;4874769;29;20202;-77
2021/06/07 12:07:16;;;;;;;19.20;17.80;;;18.90;99.90;;;;;;4872266;29;20270;-77
2021/06/07 12:09:47;;;;;;;19.07;17.77;;;19.00;99.90;;;;;;4857698;29;20200;-78
2021/06/07 12:12:15;;;;;;;18.57;17.27;;;19.10;99.90;;;;;;4872259;29;20328;-78
2021/06/07 12:14:45;;;;;;;19.80;18.33;;;19.20;99.90;;;;;;4851172;29;20207;-78
2021/06/07 12:17:17;;;;;;;19.17;17.77;;;19.30;99.90;;;;;;4858031;29;20276;-77
2021/06/07 12:19:45;;;;;;;20.00;18.50;;;19.20;99.90;;;;;;4871651;29;20293;-77
2021/06/07 12:22:29;;;;;;;19.57;18.17;;;19.00;99.90;;;;;;4854478;29;20232;-78
2021/06/07 12:24:58;;;;;;;19.43;18.03;;;19.00;99.90;;;;;;4865435;29;20198;-77
2021/06/07 12:30:19;;;;;;;19.57;18.17;;;18.90;99.90;;;;;;4852016;29;20234;-78
2021/06/07 12:32:49;;;;;;;20.03;18.57;;;19.00;99.90;;;;;;4872593;29;20206;-78
2021/06/07 12:35:16;;;;;;;18.97;17.67;;;18.90;99.90;;;;;;4872907;29;20618;-78
2021/06/07 12:37:46;;;;;;;19.37;17.97;;;18.80;99.90;;;;;;4851391;29;20197;-77
2021/06/07 12:40:29;;;;;;;20.80;19.20;;;18.80;99.90;;;;;;4867764;29;20287;-77
2021/06/07 12:43:11;;;;;;;20.40;18.60;;;18.70;99.90;;;;;;4872748;29;20213;-77